createdAt,value
2018-06-16T00:00:15.230Z,0.00
2018-06-16T00:01:15.206Z,0.00
2018-06-16T00:02:15.211Z,0.00
2018-06-16T00:03:15.153Z,0.00
2018-06-16T00:04:15.127Z,0.00
2018-06-16T00:05:15.104Z,0.00
2018-06-16T00:06:15.168Z,0.00
2018-06-16T00:07:15.049Z,0.00
2018-06-16T00:08:15.030Z,0.00
2018-06-16T00:09:15.003Z,0.00
2018-06-16T00:10:14.974Z,0.00
2018-06-16T00:11:14.985Z,0.00
2018-06-16T00:12:14.927Z,0.00
2018-06-16T00:13:14.901Z,0.00
2018-06-16T00:14:16.830Z,0.00
2018-06-16T00:15:14.865Z,0.00
2018-06-16T00:16:14.822Z,0.00
2018-06-16T00:17:14.810Z,0.00
2018-06-16T00:18:14.767Z,0.00
2018-06-16T00:19:14.742Z,0.00
2018-06-16T00:20:14.728Z,0.00
2018-06-16T00:21:14.692Z,0.00
2018-06-16T00:22:16.336Z,0.00
2018-06-16T00:23:14.652Z,0.00
2018-06-16T00:24:14.621Z,0.00
2018-06-16T00:25:14.602Z,0.00
2018-06-16T00:26:14.572Z,0.00
2018-06-16T00:27:14.540Z,0.00
2018-06-16T00:28:14.522Z,0.00
2018-06-16T00:29:14.481Z,0.00
2018-06-16T00:30:14.463Z,0.00
2018-06-16T00:31:14.441Z,0.00
2018-06-16T00:32:14.411Z,0.00
2018-06-16T00:33:14.379Z,0.00
2018-06-16T00:34:14.361Z,0.00
2018-06-16T00:35:14.354Z,0.00
2018-06-16T00:36:14.303Z,0.00
2018-06-16T00:37:14.289Z,0.00
2018-06-16T00:38:16.873Z,0.00
2018-06-16T00:39:14.234Z,0.00
2018-06-16T00:40:14.206Z,0.00
2018-06-16T00:41:14.195Z,0.00
2018-06-16T00:42:14.150Z,0.00
2018-06-16T00:43:14.124Z,0.00
2018-06-16T00:44:14.095Z,0.00
2018-06-16T00:45:14.069Z,0.00
2018-06-16T00:46:14.057Z,0.00
2018-06-16T00:47:14.047Z,0.00
2018-06-16T00:48:13.996Z,0.00
2018-06-16T00:49:13.973Z,0.00
2018-06-16T00:50:13.954Z,0.00
2018-06-16T00:51:13.919Z,0.00
2018-06-16T00:52:13.911Z,0.00
2018-06-16T00:53:13.876Z,0.00
2018-06-16T00:54:13.842Z,0.00
2018-06-16T00:55:13.817Z,0.00
2018-06-16T00:56:13.790Z,0.00
2018-06-16T00:57:13.769Z,0.00
2018-06-16T00:58:13.737Z,0.00
2018-06-16T00:59:13.714Z,0.00
2018-06-16T01:00:13.715Z,0.00
2018-06-16T01:01:13.657Z,0.00
2018-06-16T01:02:13.631Z,0.00
2018-06-16T01:03:13.616Z,0.00
2018-06-16T01:04:13.581Z,0.00
2018-06-16T01:05:13.559Z,0.00
2018-06-16T01:06:13.536Z,0.00
2018-06-16T01:07:13.510Z,0.00
2018-06-16T01:08:13.483Z,0.00
2018-06-16T01:09:13.453Z,0.00
2018-06-16T01:10:13.509Z,0.00
2018-06-16T01:11:13.400Z,0.00
2018-06-16T01:12:13.432Z,0.00
2018-06-16T01:13:13.349Z,0.00
2018-06-16T01:14:13.345Z,0.00
2018-06-16T01:15:13.304Z,0.00
2018-06-16T01:16:13.320Z,0.00
2018-06-16T01:17:13.253Z,0.00
2018-06-16T01:18:13.230Z,0.00
2018-06-16T01:19:13.195Z,0.00
2018-06-16T01:20:13.167Z,0.00
2018-06-16T01:21:13.144Z,0.00
2018-06-16T01:22:13.117Z,0.00
2018-06-16T01:23:13.107Z,0.00
2018-06-16T01:24:13.069Z,0.00
2018-06-16T01:25:13.047Z,0.00
2018-06-16T01:26:13.011Z,0.00
2018-06-16T01:27:13.003Z,0.00
2018-06-16T01:28:12.959Z,0.00
2018-06-16T01:29:12.936Z,0.00
2018-06-16T01:30:12.910Z,0.00
2018-06-16T01:31:12.883Z,0.00
2018-06-16T01:32:12.860Z,0.00
2018-06-16T01:33:12.835Z,0.00
2018-06-16T01:34:12.865Z,0.00
2018-06-16T01:35:12.784Z,0.00
2018-06-16T01:36:12.768Z,0.00
2018-06-16T01:37:12.752Z,0.00
2018-06-16T01:38:12.708Z,0.00
2018-06-16T01:39:12.674Z,0.00
2018-06-16T01:40:12.679Z,0.00
2018-06-16T01:41:12.625Z,0.00
2018-06-16T01:42:12.591Z,0.00
2018-06-16T01:43:12.591Z,0.00
2018-06-16T01:44:12.545Z,0.00
2018-06-16T01:45:12.517Z,0.00
2018-06-16T01:46:12.506Z,0.00
2018-06-16T01:47:12.467Z,0.00
2018-06-16T01:48:12.436Z,0.00
2018-06-16T01:49:12.416Z,0.00
2018-06-16T01:50:12.395Z,0.00
2018-06-16T01:51:12.363Z,0.00
2018-06-16T01:52:12.352Z,0.00
2018-06-16T01:53:12.313Z,0.00
2018-06-16T01:54:12.281Z,0.00
2018-06-16T01:55:12.263Z,0.00
2018-06-16T01:56:12.240Z,0.00
2018-06-16T01:57:12.203Z,0.00
2018-06-16T01:58:12.180Z,0.00
2018-06-16T01:59:12.162Z,0.00
2018-06-16T02:00:12.125Z,0.00
2018-06-16T02:01:12.101Z,0.00
2018-06-16T02:02:12.073Z,0.00
2018-06-16T02:03:12.051Z,0.00
2018-06-16T02:04:12.021Z,0.00
2018-06-16T02:05:11.995Z,0.00
2018-06-16T02:06:11.967Z,0.00
2018-06-16T02:07:11.943Z,0.00
2018-06-16T02:08:11.914Z,0.00
2018-06-16T02:09:11.892Z,0.00
2018-06-16T02:10:11.863Z,0.00
2018-06-16T02:11:11.835Z,0.00
2018-06-16T02:12:11.830Z,0.00
2018-06-16T02:13:11.783Z,0.00
2018-06-16T02:14:11.757Z,0.00
2018-06-16T02:15:11.732Z,0.00
2018-06-16T02:16:11.705Z,0.00
2018-06-16T02:17:11.678Z,0.00
2018-06-16T02:18:11.651Z,0.00
2018-06-16T02:19:11.629Z,0.00
2018-06-16T02:20:11.642Z,0.00
2018-06-16T02:21:11.584Z,0.00
2018-06-16T02:22:11.567Z,0.00
2018-06-16T02:23:11.535Z,0.00
2018-06-16T02:24:11.501Z,0.00
2018-06-16T02:25:11.487Z,0.00
2018-06-16T02:26:11.477Z,0.00
2018-06-16T02:27:11.467Z,0.00
2018-06-16T02:28:11.411Z,0.00
2018-06-16T02:29:11.406Z,0.00
2018-06-16T02:30:11.344Z,0.00
2018-06-16T02:31:11.324Z,0.00
2018-06-16T02:32:11.321Z,0.00
2018-06-16T02:33:11.263Z,0.00
2018-06-16T02:34:11.247Z,0.00
2018-06-16T02:35:11.225Z,0.00
2018-06-16T02:36:11.263Z,0.00
2018-06-16T02:37:11.163Z,0.00
2018-06-16T02:38:11.167Z,0.00
2018-06-16T02:39:11.103Z,0.00
2018-06-16T02:40:11.078Z,4.00
2018-06-16T02:41:11.082Z,4.00
2018-06-16T02:42:11.025Z,4.00
2018-06-16T02:43:11.008Z,0.00
2018-06-16T02:44:10.978Z,4.00
2018-06-16T02:45:11.220Z,4.00
2018-06-16T02:46:10.921Z,4.00
2018-06-16T02:47:10.915Z,8.00
2018-06-16T02:48:10.873Z,4.00
2018-06-16T02:49:10.859Z,8.00
2018-06-16T02:50:10.920Z,4.00
2018-06-16T02:51:10.793Z,8.00
2018-06-16T02:52:10.768Z,12.00
2018-06-16T02:53:10.735Z,8.00
2018-06-16T02:54:10.736Z,8.00
2018-06-16T02:55:10.701Z,12.00
2018-06-16T02:56:10.691Z,12.00
2018-06-16T02:57:10.756Z,16.00
2018-06-16T02:58:10.618Z,16.00
2018-06-16T02:59:10.592Z,20.00
2018-06-16T03:00:10.566Z,24.00
2018-06-16T03:01:10.543Z,24.00
2018-06-16T03:02:10.503Z,24.00
2018-06-16T03:03:10.498Z,28.00
2018-06-16T03:04:10.453Z,28.00
2018-06-16T03:05:10.417Z,32.00
2018-06-16T03:06:10.397Z,36.00
2018-06-16T03:07:10.380Z,40.00
2018-06-16T03:08:10.376Z,48.00
2018-06-16T03:09:10.327Z,48.00
2018-06-16T03:10:10.298Z,56.00
2018-06-16T03:11:10.304Z,56.00
2018-06-16T03:12:10.321Z,64.00
2018-06-16T03:13:10.205Z,64.00
2018-06-16T03:14:10.213Z,72.00
2018-06-16T03:15:10.307Z,76.00
2018-06-16T03:16:10.133Z,80.00
2018-06-16T03:17:10.180Z,84.00
2018-06-16T03:18:10.141Z,92.00
2018-06-16T03:19:10.102Z,96.00
2018-06-16T03:20:10.116Z,100.00
2018-06-16T03:21:10.069Z,104.00
2018-06-16T03:22:10.027Z,112.00
2018-06-16T03:23:09.996Z,120.00
2018-06-16T03:24:10.011Z,128.00
2018-06-16T03:25:10.025Z,144.00
2018-06-16T03:26:09.945Z,152.00
2018-06-16T03:27:09.853Z,164.00
2018-06-16T03:28:09.926Z,176.00
2018-06-16T03:29:09.823Z,184.00
2018-06-16T03:30:09.765Z,196.00
2018-06-16T03:31:09.746Z,208.00
2018-06-16T03:32:09.720Z,220.00
2018-06-16T03:33:09.889Z,232.00
2018-06-16T03:34:09.671Z,248.00
2018-06-16T03:35:09.647Z,260.00
2018-06-16T03:36:09.637Z,276.00
2018-06-16T03:37:09.584Z,288.00
2018-06-16T03:38:09.553Z,300.00
2018-06-16T03:39:09.533Z,316.00
2018-06-16T03:40:09.535Z,332.00
2018-06-16T03:41:09.480Z,348.00
2018-06-16T03:42:09.463Z,360.00
2018-06-16T03:43:09.425Z,376.00
2018-06-16T03:44:09.395Z,396.00
2018-06-16T03:45:09.370Z,412.00
2018-06-16T03:46:09.351Z,432.00
2018-06-16T03:47:09.323Z,448.00
2018-06-16T03:48:09.296Z,468.00
2018-06-16T03:49:09.268Z,488.00
2018-06-16T03:50:09.247Z,508.00
2018-06-16T03:51:09.310Z,532.00
2018-06-16T03:52:09.205Z,556.00
2018-06-16T03:53:09.172Z,576.00
2018-06-16T03:54:09.143Z,596.00
2018-06-16T03:55:09.161Z,616.00
2018-06-16T03:56:09.087Z,640.00
2018-06-16T03:57:09.055Z,664.00
2018-06-16T03:58:09.039Z,688.00
2018-06-16T03:59:09.001Z,720.00
2018-06-16T04:00:09.009Z,744.00
2018-06-16T04:01:08.953Z,776.00
2018-06-16T04:02:08.922Z,808.00
2018-06-16T04:03:08.896Z,836.00
2018-06-16T04:04:08.927Z,872.00
2018-06-16T04:05:08.873Z,904.00
2018-06-16T04:06:08.833Z,940.00
2018-06-16T04:07:08.815Z,972.00
2018-06-16T04:08:08.779Z,1000.00
2018-06-16T04:09:08.748Z,1028.00
2018-06-16T04:10:08.735Z,1056.00
2018-06-16T04:11:08.689Z,1080.00
2018-06-16T04:12:08.662Z,1112.00
2018-06-16T04:13:08.660Z,1144.00
2018-06-16T04:14:08.611Z,1172.00
2018-06-16T04:15:08.582Z,1208.00
2018-06-16T04:16:08.576Z,1252.00
2018-06-16T04:17:08.525Z,1296.00
2018-06-16T04:18:08.580Z,1340.00
2018-06-16T04:19:08.482Z,1388.00
2018-06-16T04:20:08.454Z,1428.00
2018-06-16T04:21:08.424Z,1464.00
2018-06-16T04:22:08.425Z,1496.00
2018-06-16T04:23:08.392Z,1520.00
2018-06-16T04:24:08.355Z,1536.00
2018-06-16T04:25:08.328Z,1552.00
2018-06-16T04:26:08.302Z,1564.00
2018-06-16T04:27:08.276Z,1572.00
2018-06-16T04:28:08.250Z,1584.00
2018-06-16T04:29:08.219Z,1596.00
2018-06-16T04:30:08.200Z,1616.00
2018-06-16T04:31:08.166Z,1636.00
2018-06-16T04:32:09.875Z,1664.00
2018-06-16T04:33:08.122Z,1696.00
2018-06-16T04:34:10.867Z,1736.00
2018-06-16T04:35:08.085Z,1768.00
2018-06-16T04:36:08.054Z,1796.00
2018-06-16T04:37:09.876Z,1820.00
2018-06-16T04:38:08.043Z,1844.00
2018-06-16T04:39:07.961Z,1852.00
2018-06-16T04:40:07.935Z,1864.00
2018-06-16T04:41:07.920Z,1880.00
2018-06-16T04:42:07.926Z,1896.00
2018-06-16T04:43:07.856Z,1916.00
2018-06-16T04:44:07.843Z,1944.00
2018-06-16T04:45:07.818Z,1964.00
2018-06-16T04:46:07.785Z,1988.00
2018-06-16T04:47:07.763Z,2016.00
2018-06-16T04:48:07.730Z,2036.00
2018-06-16T04:49:07.706Z,2056.00
2018-06-16T04:50:07.698Z,2076.00
2018-06-16T04:51:07.653Z,2100.00
2018-06-16T04:52:07.635Z,2128.00
2018-06-16T04:53:07.608Z,2164.00
2018-06-16T04:54:07.602Z,2204.00
2018-06-16T04:55:07.559Z,2264.00
2018-06-16T04:56:07.552Z,2312.00
2018-06-16T04:57:07.599Z,2376.00
2018-06-16T04:58:07.628Z,2452.00
2018-06-16T04:59:07.603Z,2532.00
2018-06-16T05:00:07.466Z,2604.00
2018-06-16T05:01:07.408Z,2668.00
2018-06-16T05:02:07.387Z,2724.00
2018-06-16T05:03:07.382Z,2768.00
2018-06-16T05:04:07.359Z,2808.00
2018-06-16T05:05:07.308Z,2852.00
2018-06-16T05:06:07.293Z,2880.00
2018-06-16T05:07:07.296Z,2904.00
2018-06-16T05:08:07.231Z,2928.00
2018-06-16T05:09:07.209Z,2944.00
2018-06-16T05:10:07.207Z,2952.00
2018-06-16T05:11:07.143Z,2936.00
2018-06-16T05:12:07.134Z,2920.00
2018-06-16T05:13:07.123Z,2900.00
2018-06-16T05:14:07.077Z,2888.00
2018-06-16T05:15:07.054Z,2888.00
2018-06-16T05:16:07.046Z,2888.00
2018-06-16T05:17:07.009Z,2892.00
2018-06-16T05:18:06.986Z,2896.00
2018-06-16T05:19:06.954Z,2904.00
2018-06-16T05:20:06.921Z,2924.00
2018-06-16T05:21:06.895Z,2952.00
2018-06-16T05:22:06.892Z,2988.00
2018-06-16T05:23:06.849Z,3004.00
2018-06-16T05:24:06.837Z,3004.00
2018-06-16T05:25:06.823Z,2992.00
2018-06-16T05:26:06.769Z,2972.00
2018-06-16T05:27:06.742Z,2940.00
2018-06-16T05:28:06.739Z,2936.00
2018-06-16T05:29:06.684Z,2928.00
2018-06-16T05:30:06.663Z,2916.00
2018-06-16T05:31:08.410Z,2924.00
2018-06-16T05:32:06.613Z,2972.00
2018-06-16T05:33:06.594Z,2996.00
2018-06-16T05:34:06.589Z,3020.00
2018-06-16T05:35:06.561Z,3088.00
2018-06-16T05:36:06.528Z,3148.00
2018-06-16T05:37:06.594Z,3188.00
2018-06-16T05:38:06.461Z,3236.00
2018-06-16T05:39:06.435Z,3296.00
2018-06-16T05:40:06.416Z,3352.00
2018-06-16T05:41:06.388Z,3384.00
2018-06-16T05:42:06.454Z,3440.00
2018-06-16T05:43:06.379Z,3484.00
2018-06-16T05:44:06.309Z,3532.00
2018-06-16T05:45:06.284Z,3588.00
2018-06-16T05:46:06.257Z,3664.00
2018-06-16T05:47:06.232Z,3740.00
2018-06-16T05:48:06.205Z,3808.00
2018-06-16T05:49:06.184Z,3800.00
2018-06-16T05:50:06.154Z,3832.00
2018-06-16T05:51:06.128Z,3836.00
2018-06-16T05:52:06.106Z,3824.00
2018-06-16T05:53:06.085Z,3832.00
2018-06-16T05:54:06.075Z,3844.00
2018-06-16T05:55:06.035Z,3872.00
2018-06-16T05:56:06.020Z,3928.00
2018-06-16T05:57:05.992Z,3980.00
2018-06-16T05:58:05.964Z,4064.00
2018-06-16T05:59:05.930Z,4180.00
2018-06-16T06:00:05.903Z,4288.00
2018-06-16T06:01:05.916Z,4432.00
2018-06-16T06:02:05.866Z,4536.00
2018-06-16T06:03:05.838Z,4620.00
2018-06-16T06:04:05.809Z,4696.00
2018-06-16T06:05:05.785Z,4724.00
2018-06-16T06:06:05.754Z,4760.00
2018-06-16T06:07:05.761Z,4792.00
2018-06-16T06:08:05.707Z,4800.00
2018-06-16T06:09:05.671Z,4828.00
2018-06-16T06:10:05.677Z,4844.00
2018-06-16T06:11:05.631Z,4856.00
2018-06-16T06:12:05.600Z,4940.00
2018-06-16T06:13:05.579Z,4948.00
2018-06-16T06:14:05.583Z,4928.00
2018-06-16T06:15:05.528Z,4916.00
2018-06-16T06:16:05.525Z,4908.00
2018-06-16T06:17:05.482Z,4892.00
2018-06-16T06:18:05.459Z,4836.00
2018-06-16T06:19:05.436Z,4804.00
2018-06-16T06:20:05.403Z,4856.00
2018-06-16T06:21:05.375Z,4912.00
2018-06-16T06:22:05.350Z,4964.00
2018-06-16T06:23:05.380Z,5020.00
2018-06-16T06:24:05.305Z,5084.00
2018-06-16T06:25:05.290Z,5152.00
2018-06-16T06:26:05.259Z,5220.00
2018-06-16T06:27:05.237Z,5248.00
2018-06-16T06:28:05.210Z,5268.00
2018-06-16T06:29:05.192Z,5296.00
2018-06-16T06:30:05.167Z,5276.00
2018-06-16T06:31:05.160Z,5280.00
2018-06-16T06:32:05.136Z,5452.00
2018-06-16T06:33:05.084Z,5552.00
2018-06-16T06:34:05.058Z,5640.00
2018-06-16T06:35:05.035Z,5776.00
2018-06-16T06:36:05.012Z,5836.00
2018-06-16T06:37:05.010Z,5844.00
2018-06-16T06:38:04.960Z,5968.00
2018-06-16T06:39:04.943Z,6044.00
2018-06-16T06:40:04.916Z,6120.00
2018-06-16T06:41:04.913Z,6124.00
2018-06-16T06:42:04.875Z,6180.00
2018-06-16T06:43:04.872Z,6216.00
2018-06-16T06:44:04.838Z,6160.00
2018-06-16T06:45:04.810Z,6192.00
2018-06-16T06:46:04.831Z,6292.00
2018-06-16T06:47:04.756Z,6344.00
2018-06-16T06:48:04.719Z,6348.00
2018-06-16T06:49:04.695Z,6376.00
2018-06-16T06:50:04.679Z,6376.00
2018-06-16T06:51:04.648Z,6392.00
2018-06-16T06:52:04.620Z,6456.00
2018-06-16T06:53:04.595Z,6464.00
2018-06-16T06:54:04.593Z,6428.00
2018-06-16T06:55:04.552Z,6484.00
2018-06-16T06:56:04.526Z,6652.00
2018-06-16T06:57:04.508Z,6720.00
2018-06-16T06:58:04.503Z,6704.00
2018-06-16T06:59:04.450Z,6660.00
2018-06-16T07:00:05.487Z,6644.00
2018-06-16T07:01:04.409Z,6728.00
2018-06-16T07:02:04.382Z,6844.00
2018-06-16T07:03:04.354Z,6776.00
2018-06-16T07:04:04.336Z,6692.00
2018-06-16T07:05:04.308Z,6636.00
2018-06-16T07:06:04.318Z,6580.00
2018-06-16T07:07:04.298Z,6592.00
2018-06-16T07:08:04.258Z,6744.00
2018-06-16T07:09:04.214Z,6716.00
2018-06-16T07:10:04.191Z,6660.00
2018-06-16T07:11:04.195Z,6528.00
2018-06-16T07:12:04.136Z,6576.00
2018-06-16T07:13:04.115Z,6776.00
2018-06-16T07:14:04.105Z,6916.00
2018-06-16T07:15:04.118Z,6904.00
2018-06-16T07:16:04.058Z,7212.00
2018-06-16T07:17:04.030Z,7184.00
2018-06-16T07:18:04.030Z,7280.00
2018-06-16T07:19:04.043Z,7380.00
2018-06-16T07:20:03.964Z,7500.00
2018-06-16T07:21:03.958Z,7480.00
2018-06-16T07:22:03.905Z,7768.00
2018-06-16T07:23:03.880Z,7712.00
2018-06-16T07:24:03.877Z,7644.00
2018-06-16T07:25:03.870Z,7744.00
2018-06-16T07:26:03.817Z,7792.00
2018-06-16T07:27:03.792Z,7616.00
2018-06-16T07:28:03.802Z,7640.00
2018-06-16T07:29:03.739Z,7700.00
2018-06-16T07:30:03.741Z,7772.00
2018-06-16T07:31:03.698Z,7728.00
2018-06-16T07:32:03.669Z,7908.00
2018-06-16T07:33:03.650Z,7856.00
2018-06-16T07:34:03.626Z,7640.00
2018-06-16T07:35:03.612Z,7484.00
2018-06-16T07:36:03.580Z,7508.00
2018-06-16T07:37:03.561Z,7392.00
2018-06-16T07:38:03.529Z,7360.00
2018-06-16T07:39:03.566Z,7312.00
2018-06-16T07:40:03.486Z,7324.00
2018-06-16T07:41:03.475Z,7508.00
2018-06-16T07:42:03.466Z,7544.00
2018-06-16T07:43:03.415Z,7588.00
2018-06-16T07:44:03.396Z,7712.00
2018-06-16T07:45:03.378Z,7764.00
2018-06-16T07:46:03.357Z,7780.00
2018-06-16T07:47:03.376Z,7792.00
2018-06-16T07:48:03.445Z,7724.00
2018-06-16T07:49:03.351Z,7644.00
2018-06-16T07:50:03.362Z,7536.00
2018-06-16T07:51:03.279Z,7388.00
2018-06-16T07:52:03.274Z,7316.00
2018-06-16T07:53:03.219Z,7224.00
2018-06-16T07:54:03.195Z,7140.00
2018-06-16T07:55:03.207Z,7036.00
2018-06-16T07:56:03.156Z,7020.00
2018-06-16T07:57:03.129Z,6996.00
2018-06-16T07:58:03.143Z,7036.00
2018-06-16T07:59:03.132Z,7096.00
2018-06-16T08:00:03.210Z,7176.00
2018-06-16T08:01:03.078Z,7304.00
2018-06-16T08:02:03.036Z,7424.00
2018-06-16T08:03:03.071Z,7548.00
2018-06-16T08:04:03.003Z,7648.00
2018-06-16T08:05:03.296Z,7724.00
2018-06-16T08:06:03.062Z,7748.00
2018-06-16T08:07:02.906Z,7744.00
2018-06-16T08:08:03.175Z,7740.00
2018-06-16T08:09:04.524Z,7708.00
2018-06-16T08:10:02.867Z,7656.00
2018-06-16T08:11:04.537Z,7592.00
2018-06-16T08:12:03.183Z,7548.00
2018-06-16T08:13:02.784Z,7480.00
2018-06-16T08:14:02.815Z,7480.00
2018-06-16T08:15:02.756Z,7436.00
2018-06-16T08:16:02.703Z,7364.00
2018-06-16T08:17:02.696Z,7292.00
2018-06-16T08:18:04.872Z,7296.00
2018-06-16T08:19:02.702Z,7228.00
2018-06-16T08:20:02.626Z,7228.00
2018-06-16T08:21:02.585Z,7184.00
2018-06-16T08:22:02.559Z,7192.00
2018-06-16T08:23:04.470Z,7068.00
2018-06-16T08:24:02.503Z,6944.00
2018-06-16T08:25:02.521Z,6900.00
2018-06-16T08:26:03.492Z,6856.00
2018-06-16T08:27:02.444Z,6840.00
2018-06-16T08:28:05.004Z,6796.00
2018-06-16T08:29:02.462Z,6800.00
2018-06-16T08:30:02.408Z,6804.00
2018-06-16T08:31:06.198Z,6760.00
2018-06-16T08:32:02.347Z,6716.00
2018-06-16T08:33:02.346Z,6708.00
2018-06-16T08:34:02.311Z,6696.00
2018-06-16T08:35:02.273Z,6700.00
2018-06-16T08:36:02.263Z,6704.00
2018-06-16T08:37:04.026Z,6744.00
2018-06-16T08:38:02.162Z,6820.00
2018-06-16T08:39:02.150Z,7008.00
2018-06-16T08:40:02.191Z,7208.00
2018-06-16T08:41:02.199Z,7396.00
2018-06-16T08:42:02.078Z,7600.00
2018-06-16T08:43:02.069Z,7908.00
2018-06-16T08:44:02.025Z,8116.00
2018-06-16T08:45:02.025Z,8316.00
2018-06-16T08:46:01.980Z,8460.00
2018-06-16T08:47:01.981Z,8500.00
2018-06-16T08:48:01.938Z,8416.00
2018-06-16T08:49:01.940Z,8388.00
2018-06-16T08:50:01.895Z,8436.00
2018-06-16T08:51:01.870Z,8500.00
2018-06-16T08:52:01.837Z,8664.00
2018-06-16T08:53:01.956Z,8840.00
2018-06-16T08:54:01.819Z,8860.00
2018-06-16T08:55:01.827Z,9404.00
2018-06-16T08:56:01.758Z,9532.00
2018-06-16T08:57:01.838Z,9772.00
2018-06-16T08:58:01.705Z,9944.00
2018-06-16T08:59:01.686Z,9892.00
2018-06-16T09:00:01.665Z,10128.00
2018-06-16T09:01:01.632Z,10200.00
2018-06-16T09:02:01.627Z,10428.00
2018-06-16T09:03:01.621Z,10460.00
2018-06-16T09:04:01.598Z,10928.00
2018-06-16T09:05:01.553Z,10792.00
2018-06-16T09:06:01.524Z,10628.00
2018-06-16T09:07:01.517Z,10728.00
2018-06-16T09:08:01.512Z,10640.00
2018-06-16T09:09:01.467Z,10424.00
2018-06-16T09:10:01.442Z,10156.00
2018-06-16T09:11:01.450Z,9968.00
2018-06-16T09:12:01.471Z,9904.00
2018-06-16T09:13:01.393Z,9692.00
2018-06-16T09:14:01.372Z,9488.00
2018-06-16T09:15:01.397Z,9352.00
2018-06-16T09:16:11.956Z,9256.00
2018-06-16T09:17:57.672Z,9292.00
2018-06-16T09:20:55.711Z,9088.00
2018-06-16T09:21:55.216Z,8724.00
2018-06-16T09:23:49.537Z,8648.00
2018-06-16T09:24:49.436Z,8600.00
2018-06-16T09:27:02.816Z,8624.00
2018-06-16T09:28:02.454Z,8768.00
2018-06-16T09:30:05.644Z,8824.00
2018-06-16T09:31:06.016Z,8876.00
2018-06-16T09:33:00.404Z,8820.00
2018-06-16T09:34:00.201Z,8856.00
2018-06-16T09:36:03.929Z,8976.00
2018-06-16T09:37:03.545Z,9104.00
2018-06-16T09:38:03.598Z,9260.00
2018-06-16T09:39:03.311Z,9240.00
2018-06-16T09:40:03.223Z,9308.00
2018-06-16T09:41:03.307Z,9356.00
2018-06-16T09:42:03.220Z,9556.00
2018-06-16T09:43:03.256Z,9612.00
2018-06-16T09:44:03.158Z,9296.00
2018-06-16T09:45:03.136Z,9488.00
2018-06-16T09:46:03.137Z,9680.00
2018-06-16T09:47:03.231Z,9544.00
2018-06-16T09:48:03.063Z,9404.00
2018-06-16T09:49:03.116Z,9204.00
2018-06-16T09:50:03.042Z,8924.00
2018-06-16T09:51:02.980Z,8856.00
2018-06-16T09:52:04.631Z,8704.00
2018-06-16T09:53:02.951Z,8876.00
2018-06-16T09:54:02.935Z,8788.00
2018-06-16T09:55:04.582Z,9080.00
2018-06-16T09:56:04.644Z,9088.00
2018-06-16T09:57:02.884Z,8916.00
2018-06-16T09:58:04.595Z,8872.00
2018-06-16T09:59:02.833Z,8968.00
2018-06-16T10:00:02.815Z,8200.00
2018-06-16T10:01:02.775Z,7616.00
2018-06-16T10:02:02.786Z,7444.00
2018-06-16T10:03:02.777Z,7632.00
2018-06-16T10:04:02.865Z,7696.00
2018-06-16T10:05:02.777Z,7860.00
2018-06-16T10:06:02.674Z,7300.00
2018-06-16T10:07:02.676Z,7200.00
2018-06-16T10:08:02.647Z,7528.00
2018-06-16T10:09:02.645Z,7424.00
2018-06-16T10:10:02.564Z,7532.00
2018-06-16T10:11:02.623Z,7896.00
2018-06-16T10:12:02.579Z,8128.00
2018-06-16T10:13:02.542Z,8548.00
2018-06-16T10:14:02.537Z,8776.00
2018-06-16T10:15:02.534Z,9920.00
2018-06-16T10:16:02.481Z,10020.00
2018-06-16T10:17:02.464Z,10236.00
2018-06-16T10:18:02.453Z,10380.00
2018-06-16T10:19:03.620Z,10356.00
2018-06-16T10:20:02.396Z,10656.00
2018-06-16T10:21:02.383Z,10300.00
2018-06-16T10:22:02.383Z,10724.00
2018-06-16T10:23:05.159Z,10868.00
2018-06-16T10:24:02.297Z,10892.00
2018-06-16T10:25:02.294Z,11536.00
2018-06-16T10:26:02.298Z,11204.00
2018-06-16T10:27:02.250Z,10908.00
2018-06-16T10:28:02.257Z,10604.00
2018-06-16T10:29:02.375Z,10312.00
2018-06-16T10:30:02.183Z,10376.00
2018-06-16T10:31:02.255Z,10056.00
2018-06-16T10:32:02.146Z,10664.00
2018-06-16T10:33:02.133Z,10868.00
2018-06-16T10:34:02.111Z,11628.00
2018-06-16T10:35:02.150Z,11848.00
2018-06-16T10:36:02.109Z,11820.00
2018-06-16T10:37:02.047Z,11788.00
2018-06-16T10:38:02.037Z,11652.00
2018-06-16T10:39:02.052Z,12060.00
2018-06-16T10:40:01.971Z,12320.00
2018-06-16T10:41:01.967Z,12060.00
2018-06-16T10:42:01.952Z,12596.00
2018-06-16T10:43:01.966Z,12540.00
2018-06-16T10:44:01.918Z,12656.00
2018-06-16T10:45:01.904Z,12920.00
2018-06-16T10:46:01.859Z,12616.00
2018-06-16T10:47:01.847Z,12260.00
2018-06-16T10:48:01.833Z,12120.00
2018-06-16T10:49:01.812Z,12364.00
2018-06-16T10:50:01.789Z,12220.00
2018-06-16T10:51:03.648Z,12012.00
2018-06-16T10:52:01.750Z,11460.00
2018-06-16T10:53:01.746Z,11984.00
2018-06-16T10:54:01.744Z,11656.00
2018-06-16T10:55:01.793Z,11684.00
2018-06-16T10:56:04.658Z,11796.00
2018-06-16T10:57:01.675Z,11572.00
2018-06-16T10:58:01.657Z,11512.00
2018-06-16T10:59:01.648Z,11944.00
2018-06-16T11:00:01.621Z,12476.00
2018-06-16T11:01:01.597Z,13160.00
2018-06-16T11:02:01.576Z,13744.00
2018-06-16T11:03:01.572Z,13636.00
2018-06-16T11:04:01.544Z,13460.00
2018-06-16T11:05:01.579Z,13048.00
2018-06-16T11:06:01.666Z,12480.00
2018-06-16T11:07:01.509Z,12056.00
2018-06-16T11:08:01.475Z,11580.00
2018-06-16T11:09:01.491Z,11392.00
2018-06-16T11:10:01.426Z,11132.00
2018-06-16T11:11:01.409Z,10472.00
2018-06-16T11:12:01.427Z,9744.00
2018-06-16T11:13:01.356Z,8840.00
2018-06-16T11:14:01.344Z,8088.00
2018-06-16T11:15:01.343Z,7468.00
2018-06-16T11:16:01.350Z,6832.00
2018-06-16T11:17:01.310Z,6156.00
2018-06-16T11:18:01.290Z,5404.00
2018-06-16T11:19:01.235Z,5028.00
2018-06-16T11:20:01.227Z,4716.00
2018-06-16T11:21:01.183Z,4288.00
2018-06-16T11:22:01.206Z,3920.00
2018-06-16T11:23:01.183Z,3536.00
2018-06-16T11:24:01.176Z,3252.00
2018-06-16T11:25:01.162Z,3156.00
2018-06-16T11:26:01.112Z,3172.00
2018-06-16T11:27:01.088Z,3200.00
2018-06-16T11:28:01.088Z,3192.00
2018-06-16T11:29:01.044Z,3268.00
2018-06-16T11:30:01.069Z,3468.00
2018-06-16T11:31:01.067Z,3652.00
2018-06-16T11:32:00.979Z,3716.00
2018-06-16T11:33:00.963Z,3812.00
2018-06-16T11:34:00.957Z,4144.00
2018-06-16T11:35:00.946Z,4664.00
2018-06-16T11:36:00.912Z,5172.00
2018-06-16T11:37:03.716Z,5700.00
2018-06-16T11:38:00.873Z,6424.00
2018-06-16T11:39:00.843Z,7408.00
2018-06-16T11:40:00.828Z,8456.00
2018-06-16T11:41:00.815Z,9448.00
2018-06-16T11:42:00.782Z,10228.00
2018-06-16T11:43:00.778Z,11144.00
2018-06-16T11:44:01.009Z,10540.00
2018-06-16T11:45:00.710Z,9164.00
2018-06-16T11:46:00.714Z,7088.00
2018-06-16T11:47:00.679Z,5488.00
2018-06-16T11:48:00.645Z,4352.00
2018-06-16T11:49:00.665Z,3528.00
2018-06-16T11:50:00.633Z,2984.00
2018-06-16T11:51:02.117Z,2644.00
2018-06-16T11:52:00.559Z,2412.00
2018-06-16T11:53:00.572Z,2260.00
2018-06-16T11:54:00.540Z,2064.00
2018-06-16T11:55:00.548Z,1828.00
2018-06-16T11:56:00.521Z,1692.00
2018-06-16T11:57:02.134Z,1680.00
2018-06-16T11:58:00.576Z,1628.00
2018-06-16T11:59:00.436Z,1560.00
2018-06-16T12:00:00.557Z,1520.00
2018-06-16T12:01:00.587Z,1504.00
2018-06-16T12:02:00.592Z,1516.00
2018-06-16T12:03:00.599Z,1552.00
2018-06-16T12:04:00.512Z,1588.00
2018-06-16T12:05:00.333Z,1636.00
2018-06-16T12:06:00.315Z,1776.00
2018-06-16T12:07:00.270Z,2008.00
2018-06-16T12:08:00.216Z,2356.00
2018-06-16T12:09:00.223Z,2756.00
2018-06-16T12:10:00.172Z,3204.00
2018-06-16T12:11:00.148Z,3748.00
2018-06-16T12:12:00.183Z,4496.00
2018-06-16T12:13:00.139Z,5300.00
2018-06-16T12:14:00.693Z,6292.00
2018-06-16T12:15:02.606Z,8060.00
2018-06-16T12:16:00.051Z,11932.00
2018-06-16T12:17:00.090Z,12804.00
2018-06-16T12:17:59.998Z,12488.00
2018-06-16T12:18:59.992Z,12440.00
2018-06-16T12:20:00.045Z,12784.00
2018-06-16T12:20:59.999Z,11460.00
2018-06-16T12:22:02.636Z,9764.00
2018-06-16T12:22:59.990Z,8476.00
2018-06-16T12:23:59.893Z,7592.00
2018-06-16T12:24:59.867Z,6976.00
2018-06-16T12:25:59.857Z,6408.00
2018-06-16T12:26:59.841Z,5764.00
2018-06-16T12:27:59.753Z,5248.00
2018-06-16T12:28:59.756Z,4860.00
2018-06-16T12:29:59.717Z,4556.00